NCAR-RAP Real-Time Weather Data

Output produced by METARs form (08 May 2021  17:14 UTC)
found at http://weather.rap.ucar.edu/surface/
 
KPVD 081651Z 06008KT 10SM FEW047 SCT070 BKN250 14/02 A2984 RMK AO2 SLP105 T01440022
KPVD 081551Z 03010G18KT 10SM FEW025 BKN070 OVC130 13/01 A2985 RMK AO2 SLP110 T01330011
KPVD 081451Z 35007KT 310V020 10SM FEW030 OVC070 13/01 A2986 RMK AO2 SLP113 T01280011 51008
KPVD 081351Z 35009KT 10SM FEW030 BKN065 OVC130 11/01 A2986 RMK AO2 SLP111 T01110006
KPVD 081251Z 01006KT 10SM BKN070 OVC150 10/M01 A2986 RMK AO2 SLP112 T01001006
KPVD 081151Z COR 36008KT 10SM SCT120 OVC150 09/M01 A2984 RMK AO2 SLP105 T00941006 10094 20067 53006
KPVD 081051Z 35007KT 10SM SCT120 OVC160 08/01 A2983 RMK AO2 SLP101 T00780011
KPVD 080951Z 35008KT 10SM FEW030 FEW120 OVC160 07/01 A2982 RMK AO2 SLP098 T00670011
KPVD 080851Z AUTO 34006KT 10SM CLR 07/01 A2982 RMK AO2 SLP098 T00720011 56015
KPVD 080751Z AUTO 35008KT 10SM CLR 07/01 A2984 RMK AO2 SLP104 T00720011
KPVD 080651Z AUTO 33006KT 10SM CLR 07/02 A2985 RMK AO2 SLP106 T00720017
KPVD 080551Z AUTO 34005KT 10SM CLR 08/02 A2987 RMK AO2 SLP114 T00780017 10117 20078 58013
KPVD 080451Z AUTO 36005KT 10SM CLR 08/01 A2988 RMK AO2 SLP118 T00780011 401720072
KPVD 080351Z 02003KT 10SM CLR 08/00 A2990 RMK AO2 SLP127 LAST T00830000
KPVD 080251Z 36005KT 10SM CLR 08/01 A2990 RMK AO2 PRESFR SLP127 T00830006 56006
KPVD 080151Z 06005KT 10SM CLR 09/01 A2991 RMK AO2 SLP128 T00940006
KPVD 080051Z 00000KT 10SM FEW070 BKN250 11/01 A2991 RMK AO2 SLP129 T01060006
KPVD 072351Z 12007KT 10SM FEW070 BKN250 12/01 A2992 RMK AO2 SLP132 T01170006 10172 20117 58001
KPVD 072251Z 14008KT 10SM FEW070 BKN250 14/00 A2993 RMK AO2 SLP134 T01390000
KPVD 072151Z 17012KT 10SM SCT070 BKN250 14/05 A2993 RMK AO2 SLP136 T01440050
KPVD 072051Z 17010KT 10SM BKN070 BKN250 15/05 A2992 RMK AO2 SLP133 T01500050 55006
KPVD 071951Z 18010KT 10SM BKN075 BKN250 16/05 A2992 RMK AO2 SLP130 T01560050
KPVD 071851Z 16010KT 10SM FEW045 BKN070 BKN250 16/04 A2993 RMK AO2 SLP135 T01560039
KPVD 071751Z 14015KT 10SM FEW045 BKN080 BKN250 16/04 A2994 RMK AO2 SLP139 T01610044 10172 20122 56007
KPVD 071651Z 15009KT 10SM FEW042 BKN080 BKN250 16/04 A2994 RMK AO2 SLP140 T01560039
KPVD 071551Z COR 19011KT 10SM FEW047 BKN080 17/06 A2996 RMK AO2 SLP144 T01670056
KPVD 071451Z 10008G16KT 10SM FEW040 FEW250 16/04 A2996 RMK AO2 SLP146 T01560044 52001
KPVD 071351Z 08008KT 050V120 10SM FEW040 FEW250 15/04 A2996 RMK AO2 SLP145 T01500044
KPVD 071251Z 06006KT 10SM FEW300 14/04 A2996 RMK AO2 SLP146 T01390039
KPVD 071151Z 03008KT 10SM FEW300 12/02 A2996 RMK AO2 SLP145 T01220017 10122 20072 53004
KPVD 071051Z 02008KT 10SM FEW080 BKN300 10/01 A2995 RMK AO2 SLP143 T01000006
KPVD 070951Z 36006KT 10SM FEW080 SCT170 BKN250 08/00 A2995 RMK AO2 SLP142 T00830000
KPVD 070851Z AUTO 36006KT 10SM CLR 09/00 A2995 RMK AO2 SLP141 T00890000 53001
KPVD 070751Z AUTO 02006KT 10SM FEW080 09/01 A2994 RMK AO2 SLP139 T00890006
KPVD 070651Z AUTO 02006KT 10SM CLR 09/02 A2994 RMK AO2 SLP140 T00940017
KPVD 070551Z AUTO 02007KT 10SM CLR 10/03 A2994 RMK AO2 SLP140 T01000028 10167 20100 50004
KPVD 070451Z AUTO 36006KT 10SM CLR 11/02 A2995 RMK AO2 SLP141 T01110022 401940094
KPVD 070351Z 02004KT 10SM BKN210 12/01 A2994 RMK AO2 SLP139 LAST T01220011
KPVD 070251Z COR 04004KT 10SM BKN220 12/04 A2993 RMK AO2 SLP136 T01220039 51017
KPVD 070151Z 04003KT 10SM BKN220 14/02 A2993 RMK AO2 SLP134 T01440017
KPVD 070051Z COR 35006KT 10SM BKN250 16/00 A2990 RMK AO2 SLP124 T01560000
KPVD 062351Z 33005KT 10SM BKN250 17/M01 A2988 RMK AO2 SLP119 T01671006 10194 20167 53011
KPVD 062251Z 31007KT 10SM FEW075 BKN250 18/M01 A2987 RMK AO2 SLP113 T01781006
KPVD 062151Z 30009KT 10SM FEW075 BKN250 19/M01 A2986 RMK AO2 SLP110 T01891006
KPVD 062051Z 34008KT 10SM SCT250 19/01 A2985 RMK AO2 SLP108 T01890006 55000
KPVD 061951Z 31006G16KT 10SM FEW060 FEW250 19/02 A2983 RMK AO2 SLP102 T01890017
KPVD 061851Z 31013G20KT 10SM FEW060 FEW250 18/02 A2984 RMK AO2 PK WND 29026/1838 SLP105 T01830017
KPVD 061751Z 30015G21KT 270V340 10SM FEW060 17/02 A2985 RMK AO2 SLP108 T01720017 10183 20128 58001